Terminal Aerodrome Forecast
Issued by NWS

Current Version | Previous Version | Text Only | Print | Product List | Glossary On
Versions: 1 2 3 4 5 6 7 8 9 10 11 12 13 14 15 16 17 18 19 20 21 22
000
FTUS41 KBOX 260533
TAFMHT
TAF
KMHT 260533Z 2606/2706 19004KT P6SM BKN130
     FM261800 28009KT P6SM VCSH BKN060
     FM270000 31007KT P6SM BKN100=

USA.gov is the U.S. government's official web portal to all federal, state and local government web resources and services.